Little Lake, CA

10:02 AM PDT on May 23, 2015 (GMT -0700)
RAWS | | Change Station
CLOSE
Current Station
Personal Weather Station
Location: Little Lake, CA
Elevation: 4149 ft
Nearby Weather Stations

Elev 4149 ft 35.87 °N, 117.92 °W | Updated 36 minutes ago

Clear
Clear
68 °F
Feels Like 68 °F
N
1
Wind Variable Wind from South
Gusts 8.0 mph

Today
High -- | Low -- °F
--% Chance of Precip.
Yesterday
High -- | Low -- °F
Precip. -- in
5:40 AM 7:56 PM
Waxing Crescent, 31% visible
Pressure 29.95 in
Visibility 10.0 miles
Clouds Clear
Dew Point 39 °F
Humidity 34%
Rainfall in
Snow Depth Not available.
UV 8 out of 12
Pollen 5.90 out of 12
Air Quality Not available.
Flu Activity Sporadic
METAR KNID 231656Z AUTO VRB03KT 10SM CLR 21/04 A2997 RMK AO2 SLP140 T02060039 $

More Conditions Fewer Conditions

Pressure 29.95 in
Visibility 10.0 miles
Clouds Clear
Dew Point 39 °F
Humidity 34%
Rainfall in
Snow Depth Not available.
UV 8 out of 12
Pollen 5.90 out of 12
Air Quality Not available.
Flu Activity Sporadic
METAR KNID 231656Z AUTO VRB03KT 10SM CLR 21/04 A2997 RMK AO2 SLP140 T02060039 $

More Conditions Fewer Conditions

10-Day Weather Forecast

Almanac

Astronomy

May. 23, 2015 Rise Set
Actual Time
Civil Twilight
Nautical Twilight
Astronomical Twilight
Moon
Length of Visible Light
Length of Day
Tomorrow will be .
, % of the Moon is Illuminated

Today's Extremes

State Highs State Lows

Community

WunderPhotos

Upload Photos

1,823,519 photos uploaded!

WunderBlogs® & News

Nearby

Air Quality

  Air Quality AQ Index Pollutant
Not available.

Snow Depth

Station Depth Elevation

Earthquake Activity

City Distance Mag. Time & Date
Minimum magnitude displayed is 2.5.

Coastal Water Temperatures

Place Temperature

Stations

Nearby Weather Stations

Station Location Temp. Windchill Dew Point Humidity Wind Precip. Elev Updated Type